Decoded Metar for KD55 ( in ) (IATA:) | Meteo·Mobile Aviation Weather
aviador You're here:

KD55 Decoded Metar

in
Report Time2018-10-22 05:55:00
UTC Time2018-10-22 06:02:31
Flight Rules vfr VFR
Wind270° at 09 kt
W.Rank270° ranks 17
Current wind is below 270° avg. (10.4)
Visibility9999 m
Phenomena:N/A
Clouds:N/A
Expected CloudBase > 2,000 ft AGL from Temp-Dew spread
CeilingNone
Temp01°C
Dew Point-4°C (70% RH)
AAT-4.7°C
QNH1015 hPa
Raw Report
KD55 220555Z AUTO 27009KT 10SM CLR 01/M04 A2996 RMK AO2=

Extra information for KD55:More info

Social comments